sensor_id;sensor_type;location;lat;lon;timestamp;temperature;humidity
30949;HTU21D;17637;51.984;21.208;2022-08-19T00:00:58;21.73;11.32
30949;HTU21D;17637;51.984;21.208;2022-08-19T00:06:02;21.81;11.48
30949;HTU21D;17637;51.984;21.208;2022-08-19T00:11:05;21.87;11.11
30949;HTU21D;17637;51.984;21.208;2022-08-19T00:16:14;21.91;11.46
30949;HTU21D;17637;51.984;21.208;2022-08-19T00:21:18;21.95;11.56
30949;HTU21D;17637;51.984;21.208;2022-08-19T00:26:21;21.96;11.33
30949;HTU21D;17637;51.984;21.208;2022-08-19T00:31:25;22.02;11.63
30949;HTU21D;17637;51.984;21.208;2022-08-19T00:36:30;21.98;11.47
30949;HTU21D;17637;51.984;21.208;2022-08-19T00:41:35;21.90;11.86
30949;HTU21D;17637;51.984;21.208;2022-08-19T00:46:42;21.93;11.56
30949;HTU21D;17637;51.984;21.208;2022-08-19T00:51:47;21.85;11.34
30949;HTU21D;17637;51.984;21.208;2022-08-19T00:56:51;21.92;11.58
30949;HTU21D;17637;51.984;21.208;2022-08-19T01:01:58;21.87;11.30
30949;HTU21D;17637;51.984;21.208;2022-08-19T01:07:01;21.83;11.33
30949;HTU21D;17637;51.984;21.208;2022-08-19T01:12:05;21.81;10.98
30949;HTU21D;17637;51.984;21.208;2022-08-19T01:17:10;21.78;10.02
30949;HTU21D;17637;51.984;21.208;2022-08-19T01:22:17;21.79;9.38
30949;HTU21D;17637;51.984;21.208;2022-08-19T01:27:38;21.85;8.56
30949;HTU21D;17637;51.984;21.208;2022-08-19T01:32:45;21.82;7.70
30949;HTU21D;17637;51.984;21.208;2022-08-19T01:37:50;21.84;7.02
30949;HTU21D;17637;51.984;21.208;2022-08-19T01:42:55;21.68;4.92
30949;HTU21D;17637;51.984;21.208;2022-08-19T01:47:58;21.61;4.26
30949;HTU21D;17637;51.984;21.208;2022-08-19T01:53:06;21.53;4.22
30949;HTU21D;17637;51.984;21.208;2022-08-19T01:58:13;21.46;4.26
30949;HTU21D;17637;51.984;21.208;2022-08-19T02:03:17;21.46;3.61
30949;HTU21D;17637;51.984;21.208;2022-08-19T02:08:20;21.39;0.96
30949;HTU21D;17637;51.984;21.208;2022-08-19T02:13:27;21.31;0.00
30949;HTU21D;17637;51.984;21.208;2022-08-19T02:18:30;21.21;-0.46
30949;HTU21D;17637;51.984;21.208;2022-08-19T02:23:32;21.23;-0.53
30949;HTU21D;17637;51.984;21.208;2022-08-19T02:28:37;21.13;-1.13
30949;HTU21D;17637;51.984;21.208;2022-08-19T02:33:40;21.07;-1.34
30949;HTU21D;17637;51.984;21.208;2022-08-19T02:38:44;20.99;-1.46
30949;HTU21D;17637;51.984;21.208;2022-08-19T02:44:00;20.91;-1.51
30949;HTU21D;17637;51.984;21.208;2022-08-19T02:49:23;20.87;-1.48
30949;HTU21D;17637;51.984;21.208;2022-08-19T02:54:26;20.86;-1.50
30949;HTU21D;17637;51.984;21.208;2022-08-19T02:59:32;20.85;-1.53
30949;HTU21D;17637;51.984;21.208;2022-08-19T03:04:35;20.90;-1.83
30949;HTU21D;17637;51.984;21.208;2022-08-19T03:09:38;20.89;-1.78
30949;HTU21D;17637;51.984;21.208;2022-08-19T03:14:42;20.95;-2.10
30949;HTU21D;17637;51.984;21.208;2022-08-19T03:19:45;20.89;-2.13
30949;HTU21D;17637;51.984;21.208;2022-08-19T03:24:49;20.96;-2.10
30949;HTU21D;17637;51.984;21.208;2022-08-19T03:29:54;20.92;-2.03
30949;HTU21D;17637;51.984;21.208;2022-08-19T03:34:58;20.92;-1.99
30949;HTU21D;17637;51.984;21.208;2022-08-19T03:40:02;20.90;-2.26
30949;HTU21D;17637;51.984;21.208;2022-08-19T03:45:09;20.87;-1.99
30949;HTU21D;17637;51.984;21.208;2022-08-19T03:50:13;20.92;-2.34
30949;HTU21D;17637;51.984;21.208;2022-08-19T03:55:16;20.98;-2.38
30949;HTU21D;17637;51.984;21.208;2022-08-19T04:00:21;21.06;-2.50
30949;HTU21D;17637;51.984;21.208;2022-08-19T04:05:24;21.14;-2.41
30949;HTU21D;17637;51.984;21.208;2022-08-19T04:10:29;21.18;-2.52
30949;HTU21D;17637;51.984;21.208;2022-08-19T04:15:33;21.15;-2.75
30949;HTU21D;17637;51.984;21.208;2022-08-19T04:20:46;21.25;-2.86
30949;HTU21D;17637;51.984;21.208;2022-08-19T04:25:49;21.37;-2.74
30949;HTU21D;17637;51.984;21.208;2022-08-19T04:30:55;21.46;-2.90
30949;HTU21D;17637;51.984;21.208;2022-08-19T04:35:58;21.57;-3.15
30949;HTU21D;17637;51.984;21.208;2022-08-19T04:41:03;21.74;-3.31
30949;HTU21D;17637;51.984;21.208;2022-08-19T04:46:26;21.95;-3.58
30949;HTU21D;17637;51.984;21.208;2022-08-19T04:51:43;22.03;-3.53
30949;HTU21D;17637;51.984;21.208;2022-08-19T04:56:46;22.16;-3.63
30949;HTU21D;17637;51.984;21.208;2022-08-19T05:01:53;22.21;-3.77
30949;HTU21D;17637;51.984;21.208;2022-08-19T05:06:56;22.18;-3.63
30949;HTU21D;17637;51.984;21.208;2022-08-19T05:12:03;22.25;-3.80
30949;HTU21D;17637;51.984;21.208;2022-08-19T05:17:07;22.41;-3.84
30949;HTU21D;17637;51.984;21.208;2022-08-19T05:22:29;22.49;-3.82
30949;HTU21D;17637;51.984;21.208;2022-08-19T05:27:35;22.75;-3.99
30949;HTU21D;17637;51.984;21.208;2022-08-19T05:32:40;22.95;-4.46
30949;HTU21D;17637;51.984;21.208;2022-08-19T05:37:43;23.20;-4.71
30949;HTU21D;17637;51.984;21.208;2022-08-19T05:42:46;23.37;-5.21
30949;HTU21D;17637;51.984;21.208;2022-08-19T05:47:58;23.64;-4.95
30949;HTU21D;17637;51.984;21.208;2022-08-19T05:53:01;23.80;-5.43
30949;HTU21D;17637;51.984;21.208;2022-08-19T05:58:04;23.98;-5.84
30949;HTU21D;17637;51.984;21.208;2022-08-19T06:03:11;24.03;-5.75
30949;HTU21D;17637;51.984;21.208;2022-08-19T06:08:14;24.04;118.96
30949;HTU21D;17637;51.984;21.208;2022-08-19T06:13:18;24.00;118.98
30949;HTU21D;17637;51.984;21.208;2022-08-19T06:18:23;24.05;-5.76
30949;HTU21D;17637;51.984;21.208;2022-08-19T06:23:27;24.18;-5.97
30949;HTU21D;17637;51.984;21.208;2022-08-19T06:28:29;24.38;-5.92
30949;HTU21D;17637;51.984;21.208;2022-08-19T06:33:34;24.69;118.92
30949;HTU21D;17637;51.984;21.208;2022-08-19T06:38:37;24.79;118.14
30949;HTU21D;17637;51.984;21.208;2022-08-19T06:43:40;24.95;118.08
30949;HTU21D;17637;51.984;21.208;2022-08-19T06:48:47;25.06;118.50
30949;HTU21D;17637;51.984;21.208;2022-08-19T06:53:52;25.35;118.08
30949;HTU21D;17637;51.984;21.208;2022-08-19T06:58:57;25.45;118.08
30949;HTU21D;17637;51.984;21.208;2022-08-19T07:04:02;25.79;118.08
30949;HTU21D;17637;51.984;21.208;2022-08-19T07:09:06;26.03;117.34
30949;HTU21D;17637;51.984;21.208;2022-08-19T07:14:09;26.15;117.94
30949;HTU21D;17637;51.984;21.208;2022-08-19T07:19:25;26.55;117.05
30949;HTU21D;17637;51.984;21.208;2022-08-19T07:24:32;26.91;117.56
30949;HTU21D;17637;51.984;21.208;2022-08-19T07:29:35;27.10;116.48
30949;HTU21D;17637;51.984;21.208;2022-08-19T07:34:40;27.15;116.81
30949;HTU21D;17637;51.984;21.208;2022-08-19T07:39:44;27.40;116.10
30949;HTU21D;17637;51.984;21.208;2022-08-19T07:44:47;27.67;116.25
30949;HTU21D;17637;51.984;21.208;2022-08-19T07:49:53;27.90;115.80
30949;HTU21D;17637;51.984;21.208;2022-08-19T07:54:57;27.95;114.86
30949;HTU21D;17637;51.984;21.208;2022-08-19T08:00:00;28.17;114.73
30949;HTU21D;17637;51.984;21.208;2022-08-19T08:05:05;28.23;114.65
30949;HTU21D;17637;51.984;21.208;2022-08-19T08:10:27;28.35;114.29
30949;HTU21D;17637;51.984;21.208;2022-08-19T08:15:30;28.48;114.29
30949;HTU21D;17637;51.984;21.208;2022-08-19T08:20:34;28.61;114.22
30949;HTU21D;17637;51.984;21.208;2022-08-19T08:25:38;28.99;113.77
30949;HTU21D;17637;51.984;21.208;2022-08-19T08:30:41;28.97;112.83
30949;HTU21D;17637;51.984;21.208;2022-08-19T08:35:48;29.13;113.45
30949;HTU21D;17637;51.984;21.208;2022-08-19T08:40:54;29.08;113.22
30949;HTU21D;17637;51.984;21.208;2022-08-19T08:46:04;29.37;112.61
30949;HTU21D;17637;51.984;21.208;2022-08-19T08:51:14;29.56;112.93
30949;HTU21D;17637;51.984;21.208;2022-08-19T08:56:22;29.77;112.27
30949;HTU21D;17637;51.984;21.208;2022-08-19T09:01:25;29.87;112.26
30949;HTU21D;17637;51.984;21.208;2022-08-19T09:06:38;29.95;111.29
30949;HTU21D;17637;51.984;21.208;2022-08-19T09:11:53;30.03;110.52
30949;HTU21D;17637;51.984;21.208;2022-08-19T09:16:59;30.03;110.28
30949;HTU21D;17637;51.984;21.208;2022-08-19T09:22:08;30.07;109.54
30949;HTU21D;17637;51.984;21.208;2022-08-19T09:27:12;30.22;110.33
30949;HTU21D;17637;51.984;21.208;2022-08-19T09:32:22;30.35;109.47
30949;HTU21D;17637;51.984;21.208;2022-08-19T09:37:29;30.19;108.97
30949;HTU21D;17637;51.984;21.208;2022-08-19T09:42:34;30.16;108.81
30949;HTU21D;17637;51.984;21.208;2022-08-19T09:47:38;30.27;109.41
30949;HTU21D;17637;51.984;21.208;2022-08-19T09:52:44;30.40;110.58
30949;HTU21D;17637;51.984;21.208;2022-08-19T09:58:01;30.42;109.12
30949;HTU21D;17637;51.984;21.208;2022-08-19T10:03:04;30.41;108.51
30949;HTU21D;17637;51.984;21.208;2022-08-19T10:08:10;30.40;108.84
30949;HTU21D;17637;51.984;21.208;2022-08-19T10:13:17;30.48;108.13
30949;HTU21D;17637;51.984;21.208;2022-08-19T10:18:24;30.56;108.66
30949;HTU21D;17637;51.984;21.208;2022-08-19T10:23:29;30.48;108.05
30949;HTU21D;17637;51.984;21.208;2022-08-19T10:28:37;30.55;108.78
30949;HTU21D;17637;51.984;21.208;2022-08-19T10:33:40;30.64;108.51
30949;HTU21D;17637;51.984;21.208;2022-08-19T10:38:59;30.75;108.22
30949;HTU21D;17637;51.984;21.208;2022-08-19T10:44:06;30.80;108.04
30949;HTU21D;17637;51.984;21.208;2022-08-19T10:49:15;30.74;107.18
30949;HTU21D;17637;51.984;21.208;2022-08-19T10:54:20;30.84;105.44
30949;HTU21D;17637;51.984;21.208;2022-08-19T10:59:34;30.95;107.03
30949;HTU21D;17637;51.984;21.208;2022-08-19T11:04:39;30.95;108.34
30949;HTU21D;17637;51.984;21.208;2022-08-19T11:09:44;31.09;108.50
30949;HTU21D;17637;51.984;21.208;2022-08-19T11:14:49;31.15;107.90
30949;HTU21D;17637;51.984;21.208;2022-08-19T11:19:52;31.19;107.82
30949;HTU21D;17637;51.984;21.208;2022-08-19T11:24:56;31.14;106.81
30949;HTU21D;17637;51.984;21.208;2022-08-19T11:29:59;31.15;105.43
30949;HTU21D;17637;51.984;21.208;2022-08-19T11:35:03;31.25;106.52
30949;HTU21D;17637;51.984;21.208;2022-08-19T11:40:09;31.29;107.71
30949;HTU21D;17637;51.984;21.208;2022-08-19T11:45:13;31.26;107.20
30949;HTU21D;17637;51.984;21.208;2022-08-19T11:50:16;31.37;106.93
30949;HTU21D;17637;51.984;21.208;2022-08-19T11:55:21;31.28;106.11
30949;HTU21D;17637;51.984;21.208;2022-08-19T12:00:24;31.31;106.40
30949;HTU21D;17637;51.984;21.208;2022-08-19T12:05:28;31.28;105.34
30949;HTU21D;17637;51.984;21.208;2022-08-19T12:10:37;31.29;106.72
30949;HTU21D;17637;51.984;21.208;2022-08-19T12:15:40;31.23;105.24
30949;HTU21D;17637;51.984;21.208;2022-08-19T12:20:44;31.30;105.31
30949;HTU21D;17637;51.984;21.208;2022-08-19T12:25:50;31.48;105.30
30949;HTU21D;17637;51.984;21.208;2022-08-19T12:30:56;31.50;104.39
30949;HTU21D;17637;51.984;21.208;2022-08-19T12:36:01;31.50;105.46
30949;HTU21D;17637;51.984;21.208;2022-08-19T12:41:09;31.55;106.19
30949;HTU21D;17637;51.984;21.208;2022-08-19T12:46:12;31.53;105.44
30949;HTU21D;17637;51.984;21.208;2022-08-19T12:51:19;31.48;103.99
30949;HTU21D;17637;51.984;21.208;2022-08-19T12:56:24;31.55;104.37
30949;HTU21D;17637;51.984;21.208;2022-08-19T13:01:27;31.55;102.49
30949;HTU21D;17637;51.984;21.208;2022-08-19T13:06:35;31.57;102.80
30949;HTU21D;17637;51.984;21.208;2022-08-19T13:11:40;31.70;102.50
30949;HTU21D;17637;51.984;21.208;2022-08-19T13:16:43;31.64;101.23
30949;HTU21D;17637;51.984;21.208;2022-08-19T13:21:49;31.63;101.82
30949;HTU21D;17637;51.984;21.208;2022-08-19T13:27:03;31.82;103.01
30949;HTU21D;17637;51.984;21.208;2022-08-19T13:32:06;31.75;101.76
30949;HTU21D;17637;51.984;21.208;2022-08-19T13:37:27;31.71;100.35
30949;HTU21D;17637;51.984;21.208;2022-08-19T13:42:49;31.69;100.21
30949;HTU21D;17637;51.984;21.208;2022-08-19T13:47:54;31.75;102.16
30949;HTU21D;17637;51.984;21.208;2022-08-19T13:53:01;31.76;99.80
30949;HTU21D;17637;51.984;21.208;2022-08-19T13:58:06;31.76;98.23
30949;HTU21D;17637;51.984;21.208;2022-08-19T14:03:10;31.82;101.69
30949;HTU21D;17637;51.984;21.208;2022-08-19T14:08:13;31.82;98.91
30949;HTU21D;17637;51.984;21.208;2022-08-19T14:13:20;31.81;98.30
30949;HTU21D;17637;51.984;21.208;2022-08-19T14:18:23;31.80;94.46
30949;HTU21D;17637;51.984;21.208;2022-08-19T14:23:32;31.80;98.93
30949;HTU21D;17637;51.984;21.208;2022-08-19T14:28:37;31.73;98.22
30949;HTU21D;17637;51.984;21.208;2022-08-19T14:33:41;31.71;96.99
30949;HTU21D;17637;51.984;21.208;2022-08-19T14:38:45;31.69;97.16
30949;HTU21D;17637;51.984;21.208;2022-08-19T14:43:54;31.79;98.23
30949;HTU21D;17637;51.984;21.208;2022-08-19T14:48:57;31.69;96.23
30949;HTU21D;17637;51.984;21.208;2022-08-19T14:54:03;31.63;94.73
30949;HTU21D;17637;51.984;21.208;2022-08-19T14:59:07;31.59;94.91
30949;HTU21D;17637;51.984;21.208;2022-08-19T15:04:11;31.55;94.89
30949;HTU21D;17637;51.984;21.208;2022-08-19T15:09:14;31.43;94.20
30949;HTU21D;17637;51.984;21.208;2022-08-19T15:14:23;31.34;93.65
30949;HTU21D;17637;51.984;21.208;2022-08-19T15:19:26;31.39;95.10
30949;HTU21D;17637;51.984;21.208;2022-08-19T15:24:29;31.38;97.70
30949;HTU21D;17637;51.984;21.208;2022-08-19T15:29:34;31.33;96.36
30949;HTU21D;17637;51.984;21.208;2022-08-19T15:34:38;31.33;96.09
30949;HTU21D;17637;51.984;21.208;2022-08-19T15:39:41;31.21;95.55
30949;HTU21D;17637;51.984;21.208;2022-08-19T15:44:46;31.21;96.47
30949;HTU21D;17637;51.984;21.208;2022-08-19T15:49:49;31.18;97.50
30949;HTU21D;17637;51.984;21.208;2022-08-19T15:54:52;30.99;99.56
30949;HTU21D;17637;51.984;21.208;2022-08-19T15:59:57;30.82;97.49
30949;HTU21D;17637;51.984;21.208;2022-08-19T16:05:20;30.84;97.49
30949;HTU21D;17637;51.984;21.208;2022-08-19T16:10:42;30.67;98.70
30949;HTU21D;17637;51.984;21.208;2022-08-19T16:15:47;30.53;99.18
30949;HTU21D;17637;51.984;21.208;2022-08-19T16:20:50;30.46;99.52
30949;HTU21D;17637;51.984;21.208;2022-08-19T16:25:53;30.40;100.58
30949;HTU21D;17637;51.984;21.208;2022-08-19T16:30:57;30.10;100.94
30949;HTU21D;17637;51.984;21.208;2022-08-19T16:36:01;30.12;102.54
30949;HTU21D;17637;51.984;21.208;2022-08-19T16:41:09;29.93;102.04
30949;HTU21D;17637;51.984;21.208;2022-08-19T16:46:17;29.86;102.74
30949;HTU21D;17637;51.984;21.208;2022-08-19T16:51:22;29.72;103.79
30949;HTU21D;17637;51.984;21.208;2022-08-19T16:56:25;29.52;103.35
30949;HTU21D;17637;51.984;21.208;2022-08-19T17:01:31;29.42;104.16
30949;HTU21D;17637;51.984;21.208;2022-08-19T17:06:34;29.43;105.48
30949;HTU21D;17637;51.984;21.208;2022-08-19T17:11:39;29.30;106.05
30949;HTU21D;17637;51.984;21.208;2022-08-19T17:16:43;28.98;105.66
30949;HTU21D;17637;51.984;21.208;2022-08-19T17:21:47;28.88;106.09
30949;HTU21D;17637;51.984;21.208;2022-08-19T17:26:50;28.78;106.16
30949;HTU21D;17637;51.984;21.208;2022-08-19T17:31:55;28.65;106.69
30949;HTU21D;17637;51.984;21.208;2022-08-19T17:36:58;28.53;107.14
30949;HTU21D;17637;51.984;21.208;2022-08-19T17:42:01;28.37;107.95
30949;HTU21D;17637;51.984;21.208;2022-08-19T17:47:08;28.28;107.72
30949;HTU21D;17637;51.984;21.208;2022-08-19T17:52:11;28.16;108.36
30949;HTU21D;17637;51.984;21.208;2022-08-19T17:57:14;28.06;109.47
30949;HTU21D;17637;51.984;21.208;2022-08-19T18:02:19;27.93;109.36
30949;HTU21D;17637;51.984;21.208;2022-08-19T18:07:23;27.83;109.03
30949;HTU21D;17637;51.984;21.208;2022-08-19T18:12:26;27.70;110.02
30949;HTU21D;17637;51.984;21.208;2022-08-19T18:17:31;27.59;110.26
30949;HTU21D;17637;51.984;21.208;2022-08-19T18:22:37;27.52;111.02
30949;HTU21D;17637;51.984;21.208;2022-08-19T18:27:40;27.43;111.03
30949;HTU21D;17637;51.984;21.208;2022-08-19T18:32:46;27.29;111.30
30949;HTU21D;17637;51.984;21.208;2022-08-19T18:37:51;27.17;112.45
30949;HTU21D;17637;51.984;21.208;2022-08-19T18:42:54;27.11;112.14
30949;HTU21D;17637;51.984;21.208;2022-08-19T18:48:17;27.01;111.84
30949;HTU21D;17637;51.984;21.208;2022-08-19T18:53:39;26.87;111.87
30949;HTU21D;17637;51.984;21.208;2022-08-19T18:58:43;26.73;112.72
30949;HTU21D;17637;51.984;21.208;2022-08-19T19:03:50;26.64;112.45
30949;HTU21D;17637;51.984;21.208;2022-08-19T19:08:55;26.53;112.89
30949;HTU21D;17637;51.984;21.208;2022-08-19T19:13:59;26.39;113.98
30949;HTU21D;17637;51.984;21.208;2022-08-19T19:19:07;26.32;114.50
30949;HTU21D;17637;51.984;21.208;2022-08-19T19:24:19;26.22;114.77
30949;HTU21D;17637;51.984;21.208;2022-08-19T19:29:22;26.06;117.21
30949;HTU21D;17637;51.984;21.208;2022-08-19T19:34:28;26.08;115.07
30949;HTU21D;17637;51.984;21.208;2022-08-19T19:39:31;26.01;115.03
30949;HTU21D;17637;51.984;21.208;2022-08-19T19:44:49;25.95;116.80
30949;HTU21D;17637;51.984;21.208;2022-08-19T19:49:54;25.88;116.18
30949;HTU21D;17637;51.984;21.208;2022-08-19T19:55:16;25.77;117.18
30949;HTU21D;17637;51.984;21.208;2022-08-19T20:00:20;25.75;116.89
30949;HTU21D;17637;51.984;21.208;2022-08-19T20:05:25;25.79;116.19
30949;HTU21D;17637;51.984;21.208;2022-08-19T20:10:28;25.68;115.84
30949;HTU21D;17637;51.984;21.208;2022-08-19T20:15:34;25.66;116.23
30949;HTU21D;17637;51.984;21.208;2022-08-19T20:20:44;25.47;115.65
30949;HTU21D;17637;51.984;21.208;2022-08-19T20:25:52;25.39;115.73
30949;HTU21D;17637;51.984;21.208;2022-08-19T20:30:56;25.38;116.65
30949;HTU21D;17637;51.984;21.208;2022-08-19T20:36:01;25.27;116.95
30949;HTU21D;17637;51.984;21.208;2022-08-19T20:41:06;25.22;116.89
30949;HTU21D;17637;51.984;21.208;2022-08-19T20:46:09;25.14;117.21
30949;HTU21D;17637;51.984;21.208;2022-08-19T20:51:14;25.09;118.50
30949;HTU21D;17637;51.984;21.208;2022-08-19T20:56:17;24.98;118.08
30949;HTU21D;17637;51.984;21.208;2022-08-19T21:01:21;24.99;118.50
30949;HTU21D;17637;51.984;21.208;2022-08-19T21:06:26;24.98;118.30
30949;HTU21D;17637;51.984;21.208;2022-08-19T21:11:30;24.87;118.47
30949;HTU21D;17637;51.984;21.208;2022-08-19T21:16:33;24.84;-5.21
30949;HTU21D;17637;51.984;21.208;2022-08-19T21:21:38;24.85;-5.01
30949;HTU21D;17637;51.984;21.208;2022-08-19T21:26:41;24.92;-5.84
30949;HTU21D;17637;51.984;21.208;2022-08-19T21:31:44;24.82;-5.55
30949;HTU21D;17637;51.984;21.208;2022-08-19T21:36:48;24.79;-5.75
30949;HTU21D;17637;51.984;21.208;2022-08-19T21:41:51;24.73;-5.72
30949;HTU21D;17637;51.984;21.208;2022-08-19T21:46:54;24.74;-5.50
30949;HTU21D;17637;51.984;21.208;2022-08-19T21:51:59;24.68;-5.61
30949;HTU21D;17637;51.984;21.208;2022-08-19T21:57:03;24.63;-4.95
30949;HTU21D;17637;51.984;21.208;2022-08-19T22:02:12;24.59;-4.37
30949;HTU21D;17637;51.984;21.208;2022-08-19T22:07:25;24.57;-4.91
30949;HTU21D;17637;51.984;21.208;2022-08-19T22:12:29;24.57;-4.81
30949;HTU21D;17637;51.984;21.208;2022-08-19T22:17:32;24.50;-4.20
30949;HTU21D;17637;51.984;21.208;2022-08-19T22:22:38;24.47;-4.34
30949;HTU21D;17637;51.984;21.208;2022-08-19T22:27:47;24.47;-2.71
30949;HTU21D;17637;51.984;21.208;2022-08-19T22:32:53;24.51;-3.22
30949;HTU21D;17637;51.984;21.208;2022-08-19T22:37:59;24.47;-3.44
30949;HTU21D;17637;51.984;21.208;2022-08-19T22:43:05;24.45;-3.06
30949;HTU21D;17637;51.984;21.208;2022-08-19T22:48:11;24.47;-3.38
30949;HTU21D;17637;51.984;21.208;2022-08-19T22:53:15;24.42;-2.92
30949;HTU21D;17637;51.984;21.208;2022-08-19T22:58:19;24.45;-3.12
30949;HTU21D;17637;51.984;21.208;2022-08-19T23:03:29;24.36;-2.93
30949;HTU21D;17637;51.984;21.208;2022-08-19T23:08:34;24.32;-2.64
30949;HTU21D;17637;51.984;21.208;2022-08-19T23:13:39;24.34;-2.35
30949;HTU21D;17637;51.984;21.208;2022-08-19T23:18:42;24.17;-1.99
30949;HTU21D;17637;51.984;21.208;2022-08-19T23:23:48;24.19;-1.62
30949;HTU21D;17637;51.984;21.208;2022-08-19T23:28:51;24.04;-0.89
30949;HTU21D;17637;51.984;21.208;2022-08-19T23:34:13;23.82;1.81
30949;HTU21D;17637;51.984;21.208;2022-08-19T23:39:18;23.76;0.65
30949;HTU21D;17637;51.984;21.208;2022-08-19T23:44:20;23.83;2.06
30949;HTU21D;17637;51.984;21.208;2022-08-19T23:49:25;23.80;1.48
30949;HTU21D;17637;51.984;21.208;2022-08-19T23:54:30;23.76;2.12
30949;HTU21D;17637;51.984;21.208;2022-08-19T23:59:45;23.76;1.98
